createdAt,value
2022-11-08T00:00:05.671Z,2.50
2022-11-08T00:05:23.269Z,2.00
2022-11-08T00:10:43.538Z,2.23
2022-11-08T00:15:48.422Z,2.87
2022-11-08T00:20:53.345Z,3.03
2022-11-08T00:26:00.970Z,2.70
2022-11-08T00:31:08.911Z,2.67
2022-11-08T00:36:15.795Z,3.70
2022-11-08T00:41:24.671Z,3.10
2022-11-08T00:46:30.268Z,2.70
2022-11-08T00:51:35.101Z,3.70
2022-11-08T00:56:42.732Z,3.67
2022-11-08T01:01:50.513Z,3.20
2022-11-08T01:06:56.699Z,3.40
2022-11-08T01:12:04.311Z,3.93
2022-11-08T01:17:09.702Z,3.13
2022-11-08T01:22:19.176Z,3.77
2022-11-08T01:27:28.064Z,3.23
2022-11-08T01:32:32.908Z,3.17
2022-11-08T01:37:37.770Z,3.17
2022-11-08T01:42:45.261Z,3.33
2022-11-08T01:47:49.986Z,3.30
2022-11-08T01:52:58.140Z,3.80
2022-11-08T01:58:08.245Z,3.30
2022-11-08T02:03:19.196Z,3.50
2022-11-08T02:08:31.219Z,3.13
2022-11-08T02:13:43.035Z,3.97
2022-11-08T02:18:49.428Z,3.37
2022-11-08T02:23:59.156Z,3.43
2022-11-08T02:29:26.988Z,3.10
2022-11-08T02:34:35.321Z,3.20
2022-11-08T02:39:43.180Z,3.63
2022-11-08T02:44:48.622Z,3.60
2022-11-08T02:49:53.677Z,3.80
2022-11-08T02:55:01.186Z,3.57
2022-11-08T03:00:07.432Z,4.47
2022-11-08T03:05:12.366Z,4.20
2022-11-08T03:10:20.497Z,3.77
2022-11-08T03:15:25.513Z,4.33
2022-11-08T03:20:33.134Z,4.57
2022-11-08T03:25:41.027Z,4.90
2022-11-08T03:30:45.774Z,4.50
2022-11-08T03:35:52.512Z,4.37
2022-11-08T03:41:00.633Z,5.07
2022-11-08T03:46:05.711Z,4.87
2022-11-08T03:51:10.690Z,5.50
2022-11-08T03:56:18.212Z,4.87
2022-11-08T04:01:23.009Z,4.67
2022-11-08T04:06:28.162Z,5.60
2022-11-08T04:11:47.940Z,5.07
2022-11-08T04:16:53.856Z,4.80
2022-11-08T04:22:01.840Z,5.37
2022-11-08T04:27:09.435Z,5.30
2022-11-08T04:32:15.168Z,5.00
2022-11-08T04:37:20.025Z,5.17
2022-11-08T04:42:27.437Z,6.00
2022-11-08T04:47:38.798Z,5.97
2022-11-08T04:52:45.947Z,6.53
2022-11-08T04:57:53.932Z,6.07
2022-11-08T05:03:01.418Z,6.60
2022-11-08T05:08:06.607Z,5.97
2022-11-08T05:13:15.650Z,6.50
2022-11-08T05:18:20.904Z,6.70
2022-11-08T05:23:31.155Z,7.03
2022-11-08T05:28:40.622Z,7.67
2022-11-08T05:33:45.775Z,7.30
2022-11-08T05:38:52.047Z,7.47
2022-11-08T05:43:59.936Z,7.03
2022-11-08T05:49:05.986Z,6.20
2022-11-08T05:54:13.126Z,6.63
2022-11-08T05:59:20.816Z,6.70
2022-11-08T06:04:25.541Z,6.23
2022-11-08T06:09:30.282Z,7.33
2022-11-08T06:14:37.975Z,8.30
2022-11-08T06:19:42.991Z,7.30
2022-11-08T06:24:50.009Z,7.63
2022-11-08T06:29:59.500Z,7.07
2022-11-08T06:35:04.918Z,6.23
2022-11-08T06:40:12.133Z,5.97
2022-11-08T06:45:20.372Z,5.90
2022-11-08T06:50:25.544Z,39.17
2022-11-08T06:55:32.933Z,87.03
2022-11-08T07:00:40.397Z,28.50
2022-11-08T07:05:47.305Z,6.47
2022-11-08T07:10:52.049Z,8.00
2022-11-08T07:16:00.997Z,6.50
2022-11-08T07:21:07.980Z,7.37
2022-11-08T07:26:15.395Z,7.33
2022-11-08T07:31:23.958Z,6.77
2022-11-08T07:36:29.105Z,6.83
2022-11-08T07:41:36.275Z,6.23
2022-11-08T07:46:45.850Z,6.53
2022-11-08T07:51:50.873Z,5.93
2022-11-08T07:56:55.911Z,7.17
2022-11-08T08:02:03.399Z,6.60
2022-11-08T08:07:08.871Z,6.17
2022-11-08T08:12:14.084Z,5.67
2022-11-08T08:17:23.899Z,5.83
2022-11-08T08:22:28.671Z,5.70
2022-11-08T08:27:35.300Z,5.50
2022-11-08T08:32:42.898Z,6.10
2022-11-08T08:37:47.690Z,5.47
2022-11-08T08:42:55.136Z,5.73
2022-11-08T08:48:03.248Z,4.87
2022-11-08T08:53:11.389Z,5.43
2022-11-08T08:58:16.586Z,5.63
2022-11-08T09:03:24.992Z,5.13
2022-11-08T09:08:32.757Z,4.67
2022-11-08T09:13:37.956Z,5.20
2022-11-08T09:18:47.523Z,4.47
2022-11-08T09:23:54.518Z,4.80
2022-11-08T09:29:00.054Z,3.73
2022-11-08T09:34:08.718Z,3.60
2022-11-08T09:39:13.510Z,3.20
2022-11-08T09:45:11.342Z,3.60
2022-11-08T09:50:24.306Z,3.50
2022-11-08T09:55:34.850Z,3.20
2022-11-08T10:00:43.298Z,3.90
2022-11-08T10:06:02.564Z,3.70
2022-11-08T10:11:25.022Z,3.30
2022-11-08T10:16:39.434Z,3.60
2022-11-08T10:21:59.063Z,2.70
2022-11-08T10:27:11.377Z,3.80
2022-11-08T10:32:21.724Z,3.40
2022-11-08T10:37:30.731Z,3.10
2022-11-08T10:42:48.916Z,2.70
2022-11-08T10:47:55.012Z,2.73
2022-11-08T10:53:05.702Z,2.27
2022-11-08T10:58:35.656Z,2.47
2022-11-08T11:03:40.858Z,2.27
2022-11-08T11:08:56.994Z,2.60
2022-11-08T11:14:18.293Z,2.30
2022-11-08T11:19:29.117Z,1.97
2022-11-08T11:24:38.388Z,1.93
2022-11-08T11:29:43.369Z,1.77
2022-11-08T11:34:55.666Z,2.30
2022-11-08T11:40:17.230Z,1.80
2022-11-08T11:45:27.018Z,2.20
2022-11-08T11:50:36.192Z,1.77
2022-11-08T11:56:01.665Z,2.07
2022-11-08T12:01:29.114Z,1.57
2022-11-08T12:06:45.769Z,1.80
2022-11-08T12:12:16.213Z,1.87
2022-11-08T12:18:12.021Z,1.60
2022-11-08T12:23:45.277Z,1.73
2022-11-08T12:29:11.629Z,1.60
2022-11-08T12:34:30.029Z,1.60
2022-11-08T12:39:45.832Z,1.50
2022-11-08T12:45:17.968Z,1.37
2022-11-08T12:50:30.723Z,1.60
2022-11-08T12:55:39.277Z,2.13
2022-11-08T13:00:52.478Z,2.10
2022-11-08T13:06:05.961Z,2.83
2022-11-08T13:11:18.743Z,2.63
2022-11-08T13:16:31.624Z,2.83
2022-11-08T13:21:47.364Z,3.03
2022-11-08T13:26:59.221Z,3.30
2022-11-08T13:32:12.335Z,3.50
2022-11-08T13:37:35.526Z,3.60
2022-11-08T13:42:57.974Z,4.30
2022-11-08T13:48:29.142Z,4.10
2022-11-08T13:53:58.570Z,4.10
2022-11-08T13:59:06.395Z,4.83
2022-11-08T14:04:30.493Z,4.63
2022-11-08T14:09:48.104Z,5.03
2022-11-08T14:14:59.759Z,4.77
2022-11-08T14:20:35.959Z,4.63
2022-11-08T14:25:42.517Z,4.63
2022-11-08T14:30:52.512Z,4.70
2022-11-08T14:36:03.999Z,4.60
2022-11-08T14:41:10.643Z,4.47
2022-11-08T14:46:17.891Z,3.80
2022-11-08T14:51:26.685Z,4.20
2022-11-08T14:56:39.755Z,4.07
2022-11-08T15:01:48.631Z,4.60
2022-11-08T15:06:59.117Z,4.90
2022-11-08T15:12:07.820Z,4.00
2022-11-08T15:17:34.205Z,3.80
2022-11-08T15:22:44.149Z,4.30
2022-11-08T15:27:50.796Z,3.43
2022-11-08T15:32:56.421Z,4.23
2022-11-08T15:38:42.262Z,4.93
2022-11-08T15:43:47.055Z,4.23
2022-11-08T15:48:58.976Z,4.93
2022-11-08T15:54:07.192Z,4.23
2022-11-08T15:59:22.124Z,4.40
2022-11-08T16:04:29.696Z,4.63
2022-11-08T16:09:37.846Z,4.43
2022-11-08T16:14:44.243Z,5.13
2022-11-08T16:19:54.050Z,5.57
2022-11-08T16:25:02.680Z,4.83
2022-11-08T16:30:15.553Z,4.93
2022-11-08T16:35:20.888Z,5.37
2022-11-08T16:40:28.730Z,5.17
2022-11-08T16:46:03.785Z,5.53
2022-11-08T16:51:03.490Z,6.60
2022-11-08T16:56:13.632Z,6.33
2022-11-08T17:01:23.468Z,6.07
2022-11-08T17:06:30.020Z,5.93
2022-11-08T17:11:38.782Z,5.80
2022-11-08T17:16:45.053Z,6.20
2022-11-08T17:21:54.499Z,6.50
2022-11-08T17:27:04.764Z,5.40
2022-11-08T17:32:09.809Z,5.47
2022-11-08T17:37:16.846Z,5.70
2022-11-08T17:42:28.018Z,5.30
2022-11-08T17:47:32.964Z,5.73
2022-11-08T17:52:37.743Z,5.43
2022-11-08T17:57:47.174Z,5.57
2022-11-08T18:02:53.041Z,5.30
2022-11-08T18:08:02.350Z,5.20
2022-11-08T18:13:11.230Z,4.80
2022-11-08T18:18:19.149Z,5.10
2022-11-08T18:23:24.303Z,4.90
2022-11-08T18:28:33.658Z,4.60
2022-11-08T18:33:40.767Z,5.37
2022-11-08T18:38:46.676Z,5.20
2022-11-08T18:43:55.006Z,5.77
2022-11-08T18:48:59.925Z,4.83
2022-11-08T18:54:05.029Z,5.03
2022-11-08T18:59:12.761Z,4.70
2022-11-08T19:04:18.196Z,4.60
2022-11-08T19:09:23.404Z,4.60
2022-11-08T19:14:31.145Z,4.27
2022-11-08T19:19:37.270Z,5.10
2022-11-08T19:24:42.324Z,5.10
2022-11-08T19:29:50.462Z,5.47
2022-11-08T19:34:55.964Z,4.93
2022-11-08T19:40:01.605Z,5.57
2022-11-08T19:45:11.059Z,5.20
2022-11-08T19:50:16.428Z,5.43
2022-11-08T19:55:21.725Z,5.43
2022-11-08T20:00:29.946Z,5.90
2022-11-08T20:05:35.004Z,5.70
2022-11-08T20:10:40.129Z,5.50
2022-11-08T20:16:17.557Z,5.47
2022-11-08T20:21:26.059Z,5.07
2022-11-08T20:26:32.416Z,5.97
2022-11-08T20:31:42.758Z,5.37
2022-11-08T20:36:49.350Z,5.80
2022-11-08T20:41:56.859Z,6.03
2022-11-08T20:47:06.975Z,5.50
2022-11-08T20:52:11.899Z,6.13
2022-11-08T20:57:16.901Z,6.07
2022-11-08T21:02:24.338Z,5.30
2022-11-08T21:12:54.576Z,5.60
2022-11-08T21:18:02.142Z,5.73
2022-11-08T21:23:08.643Z,6.60
2022-11-08T21:28:15.341Z,6.47
2022-11-08T21:33:23.385Z,6.60
2022-11-08T21:38:28.708Z,6.20
2022-11-08T21:43:36.678Z,7.40
2022-11-08T21:48:44.224Z,6.03
2022-11-08T21:53:54.458Z,6.43
2022-11-08T21:59:04.773Z,8.17
2022-11-08T22:04:12.478Z,7.80
2022-11-08T22:09:17.345Z,8.93
2022-11-08T22:14:22.165Z,7.90
2022-11-08T22:19:29.769Z,8.37
2022-11-08T22:24:35.106Z,8.83
2022-11-08T22:29:39.961Z,8.80
2022-11-08T22:34:47.591Z,8.80
2022-11-08T22:39:52.397Z,10.23
2022-11-08T22:44:59.991Z,9.43
2022-11-08T22:50:08.361Z,9.13
2022-11-08T22:55:13.494Z,10.03
2022-11-08T23:00:18.913Z,11.50
2022-11-08T23:05:26.691Z,10.00
2022-11-08T23:10:31.823Z,10.57
2022-11-08T23:15:50.385Z,11.47
2022-11-08T23:21:23.544Z,12.23
2022-11-08T23:26:41.172Z,11.43
2022-11-08T23:31:45.953Z,12.57
2022-11-08T23:36:53.565Z,13.10
2022-11-08T23:42:10.744Z,12.83
2022-11-08T23:47:15.650Z,13.27
2022-11-08T23:52:34.503Z,13.77
2022-11-08T23:57:39.572Z,12.03
